Time;durP1;ratioP1;P1;durP2;ratioP2;P2;SDS_P1;SDS_P2;PMS_P1;PMS_P2;Temp;Humidity;BMP_temperature;BMP_pressure;BME280_temperature;BME280_humidity;BME280_pressure;Samples;Min_cycle;Max_cycle;Signal;HPM_P1;HPM_P2
2023/05/08 00:01:38;;;;;;;7.03;4.35;;;;;;;22.57;61.94;101137.19;5055748;28;20052;-56
2023/05/08 00:04:06;;;;;;;7.05;4.82;;;;;;;22.57;61.96;101137.19;5055776;28;20052;-56
2023/05/08 00:06:33;;;;;;;7.32;5.63;;;;;;;22.57;61.80;101142.56;5055704;28;20048;-56
2023/05/08 00:09:00;;;;;;;5.82;5.22;;;;;;;22.57;61.96;101144.41;5055613;28;20067;-56
2023/05/08 00:11:27;;;;;;;6.35;4.80;;;;;;;22.57;61.94;101147.13;5055736;28;20395;-57
2023/05/08 00:13:55;;;;;;;6.78;5.15;;;;;;;22.57;61.85;101149.81;5055379;28;20497;-57
2023/05/08 00:16:22;;;;;;;8.00;5.65;;;;;;;22.56;61.86;101154.34;5055475;28;20487;-57
2023/05/08 00:18:49;;;;;;;8.30;5.57;;;;;;;22.56;61.81;101165.13;5055592;28;20051;-57
2023/05/08 00:21:17;;;;;;;6.57;5.35;;;;;;;22.56;61.68;101165.13;5055559;28;20044;-56
2023/05/08 00:23:44;;;;;;;5.72;5.03;;;;;;;22.55;61.82;101158.03;5055484;28;20475;-57
2023/05/08 00:26:11;;;;;;;8.02;5.18;;;;;;;22.57;61.82;101163.31;5055669;28;20041;-57
2023/05/08 00:28:39;;;;;;;5.63;4.78;;;;;;;22.56;61.92;101157.03;5055509;28;20048;-57
2023/05/08 00:31:06;;;;;;;5.05;4.40;;;;;;;22.56;61.91;101164.28;5055404;28;20048;-56
2023/05/08 00:33:34;;;;;;;7.43;5.20;;;;;;;22.55;61.75;101158.03;5055385;28;20045;-57
2023/05/08 00:36:03;;;;;;;6.10;5.13;;;;;;;22.55;61.74;101158.03;5055317;28;20055;-56
2023/05/08 00:38:35;;;;;;;7.03;5.05;;;;;;;22.56;61.65;101161.59;5054010;28;20393;-56
2023/05/08 00:41:03;;;;;;;5.95;5.35;;;;;;;22.56;61.59;101158.88;5055514;28;20360;-56
2023/05/08 00:43:30;;;;;;;5.50;4.93;;;;;;;22.55;61.64;101158.03;5055151;28;20041;-56
2023/05/08 00:46:00;;;;;;;5.30;4.80;;;;;;;22.55;61.67;101158.03;5055135;28;20502;-56
2023/05/08 00:48:30;;;;;;;5.25;4.75;;;;;;;22.56;61.62;101156.19;5054892;28;20470;-56
2023/05/08 00:50:59;;;;;;;5.32;4.82;;;;;;;22.55;61.64;101149.94;5054036;28;20049;-56
2023/05/08 00:53:30;;;;;;;7.03;5.00;;;;;;;22.56;61.59;101153.50;5053758;28;20041;-56
2023/05/08 00:55:58;;;;;;;5.65;5.07;;;;;;;22.55;61.49;101158.03;5054883;28;20089;-56
2023/05/08 00:58:26;;;;;;;5.75;4.70;;;;;;;22.55;61.52;101158.03;5053471;28;20049;-56
2023/05/08 01:00:55;;;;;;;4.35;3.95;;;;;;;22.56;61.69;101158.88;5054758;28;20049;-56
2023/05/08 01:03:24;;;;;;;5.32;3.78;;;;;;;22.56;61.78;101165.13;5052618;28;20399;-56
2023/05/08 01:05:53;;;;;;;6.55;4.13;;;;;;;22.55;61.61;101163.44;5053563;28;20471;-57
2023/05/08 01:08:21;;;;;;;4.93;4.22;;;;;;;22.55;61.75;101163.44;5054543;28;20391;-57
2023/05/08 01:11:07;;;;;;;4.28;3.88;;;;;;;22.56;61.52;101164.28;5054709;28;20055;-56
2023/05/08 01:13:55;;;;;;;5.53;4.20;;;;;;;22.56;61.53;101167.81;5052920;28;20364;-55
2023/05/08 01:16:34;;;;;;;5.32;4.70;;;;;;;22.55;61.73;101160.72;5054622;28;20044;-56
2023/05/08 01:19:41;;;;;;;5.53;4.32;;;;;;;22.56;61.55;101170.53;5054188;28;20052;-56
2023/05/08 01:22:27;;;;;;;6.18;4.43;;;;;;;22.56;61.55;101173.22;5054447;28;20055;-57
2023/05/08 01:24:54;;;;;;;7.18;3.70;;;;;;;22.56;61.40;101181.31;5052921;28;20053;-57
2023/05/08 01:27:27;;;;;;;6.38;4.03;;;;;;;22.56;61.42;101169.69;5054180;28;20041;-57
2023/05/08 01:30:12;;;;;;;6.32;4.72;;;;;;;22.55;61.74;101176.94;5054384;28;20049;-56
2023/05/08 01:32:45;;;;;;;5.25;4.75;;;;;;;22.55;61.90;101179.63;5054237;28;20060;-56
2023/05/08 01:35:19;;;;;;;6.55;4.65;;;;;;;22.55;61.79;101185.03;5054299;28;20055;-56
2023/05/08 01:37:57;;;;;;;5.47;4.57;;;;;;;22.56;61.83;101188.56;5054131;28;20379;-56
2023/05/08 01:40:36;;;;;;;4.32;3.92;;;;;;;22.55;61.87;101185.03;5054301;28;20052;-56
2023/05/08 01:43:26;;;;;;;6.63;4.00;;;;;;;22.56;62.03;101184.00;5052975;28;20057;-56
2023/05/08 01:45:56;;;;;;;5.68;4.53;;;;;;;22.56;61.93;101188.56;5052665;28;20170;-56
2023/05/08 01:48:33;;;;;;;4.88;4.35;;;;;;;22.56;61.86;101193.97;5054054;28;20487;-56
2023/05/08 01:51:16;;;;;;;4.88;4.28;;;;;;;22.56;62.11;101193.97;5054419;28;20064;-56
2023/05/08 01:53:50;;;;;;;6.53;5.13;;;;;;;22.56;61.96;101200.22;5053915;28;20072;-56
2023/05/08 01:56:22;;;;;;;12.38;5.18;;;;;;;22.55;61.76;101195.81;5051995;28;20052;-56
2023/05/08 01:58:53;;;;;;;4.97;4.43;;;;;;;22.55;62.08;101201.22;5052526;28;20049;-56
2023/05/08 02:01:23;;;;;;;7.28;4.35;;;;;;;22.55;62.06;101200.38;5052866;28;20286;-56
2023/05/08 02:03:52;;;;;;;6.05;4.47;;;;;;;22.54;61.73;101199.50;5052474;28;20060;-56
2023/05/08 02:06:21;;;;;;;7.15;4.35;;;;;;;22.54;61.77;101199.50;5052401;28;20056;-56
2023/05/08 02:08:50;;;;;;;4.78;4.03;;;;;;;22.55;61.50;101200.38;5053628;28;20379;-57
2023/05/08 02:11:19;;;;;;;5.45;4.35;;;;;;;22.55;61.42;101205.75;5053495;28;20044;-56
2023/05/08 02:13:48;;;;;;;5.72;4.18;;;;;;;22.54;61.51;101206.75;5035907;28;20053;-55
2023/05/08 02:16:17;;;;;;;6.65;4.20;;;;;;;22.54;61.53;101204.91;5052636;28;20414;-56
2023/05/08 02:18:50;;;;;;;5.47;3.90;;;;;;;22.54;61.42;101198.66;5053202;28;20041;-56
2023/05/08 02:21:18;;;;;;;4.65;3.58;;;;;;;22.53;61.35;101195.13;5053441;28;20053;-56
2023/05/08 02:23:47;;;;;;;5.35;3.92;;;;;;;22.53;61.38;101200.53;5053357;28;20057;-56
2023/05/08 02:26:15;;;;;;;8.30;4.10;;;;;;;22.54;61.40;101193.28;5053331;28;20037;-56
2023/05/08 02:28:44;;;;;;;4.97;3.88;;;;;;;22.53;61.32;101200.53;5053397;28;20036;-56
2023/05/08 02:31:13;;;;;;;4.45;3.85;;;;;;;22.53;61.45;101192.41;5052564;28;20053;-56
2023/05/08 02:33:42;;;;;;;4.57;3.65;;;;;;;22.53;61.45;101191.56;5035930;28;20049;-56
2023/05/08 02:36:12;;;;;;;5.30;3.67;;;;;;;22.53;61.42;101186.19;5052264;28;20052;-55
2023/05/08 02:38:45;;;;;;;4.68;4.10;;;;;;;22.53;61.23;101192.41;5052365;28;20049;-56
2023/05/08 02:41:14;;;;;;;5.72;3.97;;;;;;;22.53;61.35;101189.72;5053377;28;20045;-56
2023/05/08 02:43:41;;;;;;;6.05;3.70;;;;;;;22.52;61.18;101195.25;5053320;28;20041;-57
2023/05/08 02:46:15;;;;;;;4.20;3.47;;;;;;;22.53;61.35;101196.97;5052028;28;20053;-56
2023/05/08 02:48:59;;;;;;;3.75;3.35;;;;;;;22.53;61.31;101197.81;5051768;28;20414;-57
2023/05/08 02:51:45;;;;;;;5.95;3.95;;;;;;;22.53;61.18;101196.97;5051828;28;20060;-56
2023/05/08 02:54:28;;;;;;;4.78;3.47;;;;;;;22.54;61.32;101188.72;5053121;28;20041;-56
2023/05/08 02:57:26;;;;;;;5.05;3.58;;;;;;;22.53;61.29;101192.41;5051927;28;20048;-56
2023/05/08 03:00:06;;;;;;;4.90;3.28;;;;;;;22.52;61.08;101185.31;5051024;28;20056;-56
2023/05/08 03:02:39;;;;;;;4.25;3.30;;;;;;;22.53;61.23;101189.72;5051903;28;20404;-56
2023/05/08 03:05:14;;;;;;;4.97;3.60;;;;;;;22.52;61.27;101182.59;5052183;28;20068;-56
2023/05/08 03:07:44;;;;;;;5.65;3.53;;;;;;;22.52;61.23;101190.69;5053234;28;20379;-57
2023/05/08 03:10:15;;;;;;;4.45;3.42;;;;;;;22.51;61.25;101183.59;5051531;28;20045;-56
2023/05/08 03:12:47;;;;;;;4.05;3.10;;;;;;;22.52;61.18;101193.41;5051691;28;20491;-56
2023/05/08 03:15:32;;;;;;;3.70;2.78;;;;;;;22.53;61.22;101186.19;5052098;28;20057;-56
2023/05/08 03:18:06;;;;;;;3.70;3.30;;;;;;;22.53;61.14;101191.56;5052977;28;20064;-57
2023/05/08 03:20:39;;;;;;;5.53;3.00;;;;;;;22.52;61.04;101200.66;5051921;28;20049;-56
2023/05/08 03:23:09;;;;;;;5.18;3.22;;;;;;;22.52;61.16;101192.53;5051508;28;20056;-57
2023/05/08 03:25:38;;;;;;;4.63;3.50;;;;;;;22.52;61.23;101198.78;5051449;28;20052;-57
2023/05/08 03:28:07;;;;;;;4.60;2.95;;;;;;;22.52;61.27;101201.50;5052505;28;20037;-57
2023/05/08 03:30:39;;;;;;;4.15;3.30;;;;;;;22.52;61.24;101195.25;5054536;28;20045;-56
2023/05/08 03:33:11;;;;;;;4.72;3.08;;;;;;;22.52;61.25;101200.66;5055058;28;20048;-55
2023/05/08 03:35:38;;;;;;;4.28;3.15;;;;;;;22.52;61.18;101201.50;5054960;28;20487;-55
2023/05/08 03:38:08;;;;;;;4.65;3.08;;;;;;;22.51;61.20;101201.66;5054870;28;20053;-56
2023/05/08 03:40:37;;;;;;;5.57;3.33;;;;;;;22.52;61.32;101200.66;5055032;28;20049;-56
2023/05/08 03:43:10;;;;;;;3.25;2.80;;;;;;;22.51;61.19;101199.78;5055016;28;20483;-56
2023/05/08 03:45:39;;;;;;;4.43;3.28;;;;;;;22.52;61.29;101206.03;5055177;28;20407;-56
2023/05/08 03:48:08;;;;;;;4.32;3.13;;;;;;;22.51;61.29;101205.19;5054773;28;20056;-56
2023/05/08 03:50:37;;;;;;;4.13;3.05;;;;;;;22.51;61.09;101209.75;5054509;28;20060;-56
2023/05/08 03:53:08;;;;;;;4.57;3.28;;;;;;;22.51;61.04;101210.59;5054741;28;20049;-56
2023/05/08 03:55:35;;;;;;;4.70;3.33;;;;;;;22.51;61.14;101218.69;5055934;28;20045;-56
2023/05/08 03:58:36;;;;;;;5.32;3.30;;;;;;;22.51;61.29;101223.22;5054220;28;20053;-56
2023/05/08 04:01:12;;;;;;;3.97;3.20;;;;;;;22.51;60.98;101215.97;5054640;28;20483;-56
2023/05/08 04:04:11;;;;;;;4.53;3.10;;;;;;;22.50;60.82;101222.38;5055239;28;20045;-56
2023/05/08 04:06:57;;;;;;;4.80;3.10;;;;;;;22.50;61.16;101222.38;5055023;28;20057;-56
2023/05/08 04:09:59;;;;;;;4.03;3.22;;;;;;;22.50;61.22;101224.22;5054354;28;20048;-56
2023/05/08 04:12:53;;;;;;;4.00;2.97;;;;;;;22.50;61.10;101227.78;5054162;28;20064;-56
2023/05/08 04:15:27;;;;;;;3.72;3.22;;;;;;;22.50;61.03;101227.78;5054421;28;20399;-56
2023/05/08 04:18:05;;;;;;;4.25;3.25;;;;;;;22.49;61.16;101234.19;5055567;28;20053;-56
2023/05/08 04:20:33;;;;;;;4.28;3.20;;;;;;;22.50;60.95;101243.97;5054563;28;20053;-56
2023/05/08 04:23:02;;;;;;;4.55;3.10;;;;;;;22.50;61.09;101241.28;5054092;28;20045;-56
2023/05/08 04:25:34;;;;;;;3.60;2.67;;;;;;;22.49;60.92;101234.19;5054302;28;20059;-56
2023/05/08 04:28:03;;;;;;;5.05;3.35;;;;;;;22.50;61.07;101240.41;5053803;28;20511;-57
2023/05/08 04:30:30;;;;;;;4.68;3.20;;;;;;;22.50;61.03;101245.81;5054535;28;20387;-56
2023/05/08 04:33:02;;;;;;;4.57;3.50;;;;;;;22.49;61.04;101250.38;5054249;28;20403;-56
2023/05/08 04:35:30;;;;;;;12.30;3.58;;;;;;;22.50;61.21;101245.81;5053448;28;20053;-56
2023/05/08 04:37:58;;;;;;;4.95;3.67;;;;;;;22.49;61.07;101249.53;5053842;28;20060;-56
2023/05/08 04:40:25;;;;;;;5.13;3.63;;;;;;;22.49;61.13;101250.38;5053565;28;20048;-56
2023/05/08 04:42:53;;;;;;;3.92;3.15;;;;;;;22.49;61.25;101249.53;5054959;28;20048;-57
2023/05/08 04:45:21;;;;;;;3.92;3.00;;;;;;;22.49;61.30;101255.75;5053895;28;20064;-56
2023/05/08 04:47:49;;;;;;;4.68;3.40;;;;;;;22.50;60.99;101249.38;5037066;28;20049;-56
2023/05/08 04:50:16;;;;;;;6.45;3.70;;;;;;;22.49;60.95;101255.75;5053865;28;20491;-56
2023/05/08 04:52:44;;;;;;;4.50;3.45;;;;;;;22.49;60.95;101258.47;5054780;28;20037;-57
2023/05/08 04:55:11;;;;;;;5.47;3.40;;;;;;;22.50;61.16;101267.41;5054871;28;20048;-57
2023/05/08 04:57:39;;;;;;;4.03;3.10;;;;;;;22.49;60.90;101263.84;5053695;28;20664;-56
2023/05/08 05:00:08;;;;;;;3.67;3.05;;;;;;;22.49;61.13;101274.66;5053765;28;20053;-56
2023/05/08 05:02:38;;;;;;;5.43;3.00;;;;;;;22.49;61.27;101271.94;5053598;28;20060;-56
2023/05/08 05:05:06;;;;;;;4.95;3.55;;;;;;;22.50;61.14;101275.50;5054556;28;20048;-56
2023/05/08 05:07:34;;;;;;;6.90;3.08;;;;;;;22.48;60.89;101264.81;5053299;28;20060;-56
2023/05/08 05:10:02;;;;;;;4.22;3.15;;;;;;;22.49;61.06;101279.19;5053813;28;20053;-56
2023/05/08 05:12:31;;;;;;;4.78;3.95;;;;;;;22.50;60.98;101275.50;5053015;28;20407;-56
2023/05/08 05:14:58;;;;;;;3.40;3.08;;;;;;;22.48;60.79;101283.72;5052907;28;20076;-56
2023/05/08 05:17:30;;;;;;;3.40;2.70;;;;;;;22.48;60.78;101283.72;5053101;28;20053;-56
2023/05/08 05:19:58;;;;;;;3.40;2.95;;;;;;;22.48;60.83;101289.09;5052962;28;20053;-56
2023/05/08 05:22:27;;;;;;;4.00;2.65;;;;;;;22.48;61.00;101291.81;5054296;28;20495;-57
2023/05/08 05:24:55;;;;;;;5.00;3.58;;;;;;;22.49;60.87;101296.22;5052955;28;20056;-56
2023/05/08 05:27:23;;;;;;;4.72;3.45;;;;;;;22.49;60.97;101290.84;5052580;28;20056;-56
2023/05/08 05:29:51;;;;;;;4.93;3.53;;;;;;;22.48;60.79;101289.09;5053168;28;20060;-56
2023/05/08 05:32:19;;;;;;;3.95;3.20;;;;;;;22.47;60.91;101290.09;5054229;28;20415;-57
2023/05/08 05:34:47;;;;;;;4.78;2.88;;;;;;;22.48;60.70;101291.81;5052524;28;20053;-57
2023/05/08 05:37:15;;;;;;;9.75;3.15;;;;;;;22.48;60.89;101286.41;5052974;28;20506;-56
2023/05/08 05:39:42;;;;;;;3.92;2.92;;;;;;;22.49;60.78;101290.84;5052630;28;20055;-56
2023/05/08 05:42:10;;;;;;;4.43;2.95;;;;;;;22.49;60.92;101290.00;5052669;28;20061;-56
2023/05/08 05:44:37;;;;;;;4.80;2.53;;;;;;;22.48;60.75;101297.19;5052638;28;20041;-56
2023/05/08 05:47:08;;;;;;;4.07;3.40;;;;;;;22.48;60.95;101290.97;5052273;28;20048;-56
2023/05/08 05:49:38;;;;;;;4.45;2.90;;;;;;;22.49;61.14;101298.09;5052300;28;20053;-56
2023/05/08 05:52:06;;;;;;;3.47;2.63;;;;;;;22.49;61.12;101300.78;5052790;28;20391;-57
2023/05/08 05:54:34;;;;;;;3.30;2.28;;;;;;;22.49;60.82;101303.47;5052511;28;20491;-56
2023/05/08 05:57:01;;;;;;;3.00;2.28;;;;;;;22.48;60.98;101302.59;5052620;28;20053;-56
2023/05/08 05:59:29;;;;;;;3.10;2.63;;;;;;;22.49;61.15;101298.94;5052644;28;20045;-56
2023/05/08 06:01:56;;;;;;;3.30;2.45;;;;;;;22.49;61.07;101300.78;5035998;28;20049;-55
2023/05/08 06:04:23;;;;;;;4.47;2.55;;;;;;;22.49;61.15;101309.72;5054014;28;20079;-55
2023/05/08 06:06:51;;;;;;;4.25;2.90;;;;;;;22.49;61.00;101309.72;5053675;28;20041;-59
2023/05/08 06:09:18;;;;;;;3.70;2.38;;;;;;;22.48;59.95;101313.38;5053436;28;20045;-57
2023/05/08 06:11:46;;;;;;;2.90;2.20;;;;;;;22.44;59.14;101307.44;5051861;28;20052;-56
2023/05/08 06:14:13;;;;;;;4.75;2.33;;;;;;;22.38;59.09;101308.00;5053312;28;20048;-56
2023/05/08 06:16:40;;;;;;;4.63;1.98;;;;;;;22.34;59.20;101309.28;5053489;28;20067;-56
2023/05/08 06:19:08;;;;;;;2.80;2.08;;;;;;;22.31;59.45;101311.38;5052183;28;20056;-56
2023/05/08 06:21:36;;;;;;;3.25;1.80;;;;;;;22.29;59.60;101316.94;5052361;28;20394;-59
2023/05/08 06:24:05;;;;;;;3.80;2.40;;;;;;;22.26;59.49;101322.59;5053424;28;20041;-59
2023/05/08 06:26:32;;;;;;;4.53;2.13;;;;;;;22.26;60.02;101319.06;5053496;28;20056;-59
2023/05/08 06:29:00;;;;;;;3.30;2.45;;;;;;;22.27;60.22;101315.38;5053449;28;20045;-59
2023/05/08 06:31:27;;;;;;;3.60;2.28;;;;;;;22.26;60.11;101313.66;5053269;28;20045;-58
2023/05/08 06:33:55;;;;;;;4.50;2.17;;;;;;;22.24;60.30;101303.03;5053290;28;20037;-59
2023/05/08 06:36:22;;;;;;;3.47;1.95;;;;;;;22.24;59.82;101316.50;5053287;28;20055;-59
2023/05/08 06:38:49;;;;;;;3.58;2.00;;;;;;;22.23;59.62;101322.88;5053209;28;20052;-59
2023/05/08 06:41:17;;;;;;;3.08;1.75;;;;;;;22.24;59.85;101312.94;5053537;28;20060;-59
2023/05/08 06:43:44;;;;;;;3.83;2.15;;;;;;;22.24;59.80;101319.22;5053185;28;20068;-59
2023/05/08 06:46:11;;;;;;;3.92;2.05;;;;;;;22.25;59.71;101317.38;5053254;28;20581;-59
2023/05/08 06:48:39;;;;;;;6.05;2.38;;;;;;;22.25;60.07;101310.13;5053271;28;20056;-58
2023/05/08 06:51:06;;;;;;;4.95;1.88;;;;;;;22.26;59.60;101314.50;5053443;28;20048;-58
2023/05/08 06:53:33;;;;;;;6.50;2.05;;;;;;;22.28;59.84;101311.66;5053220;28;20116;-58
2023/05/08 06:56:00;;;;;;;10.05;2.30;;;;;;;22.28;60.00;101309.84;5053277;28;20045;-59
2023/05/08 06:58:30;;;;;;;5.22;2.33;;;;;;;22.31;59.51;101309.53;5053179;28;20045;-59
2023/05/08 07:01:00;;;;;;;5.60;2.08;;;;;;;22.32;59.61;101299.59;5053029;28;20052;-55
2023/05/08 07:03:27;;;;;;;4.20;1.67;;;;;;;22.33;59.93;101304.88;5053255;28;20052;-56
2023/05/08 07:05:55;;;;;;;6.65;2.30;;;;;;;22.35;58.79;101302.03;5056912;28;20045;-56
2023/05/08 07:08:22;;;;;;;6.20;2.10;;;;;;;22.36;59.01;101303.72;5056492;28;20410;-56
2023/05/08 07:10:49;;;;;;;5.18;1.98;;;;;;;22.35;58.92;101307.41;5056803;28;20136;-58
2023/05/08 07:13:20;;;;;;;3.65;2.25;;;;;;;22.36;58.77;101301.03;5070974;28;20044;-59
2023/05/08 07:15:47;;;;;;;3.50;1.90;;;;;;;22.38;58.64;101304.44;5076275;28;20052;-59
2023/05/08 07:18:15;;;;;;;3.72;2.70;;;;;;;22.41;58.81;101312.28;5075992;28;20045;-58
2023/05/08 07:20:42;;;;;;;5.95;2.53;;;;;;;22.41;58.32;101313.13;5076491;28;20048;-56
2023/05/08 07:23:09;;;;;;;3.47;2.40;;;;;;;22.44;58.91;101314.66;5076031;28;20044;-56
2023/05/08 07:25:37;;;;;;;5.30;3.00;;;;;;;22.45;58.57;101311.84;5076286;28;20048;-56
2023/05/08 07:28:04;;;;;;;7.25;3.10;;;;;;;22.48;58.34;101307.16;5075993;28;20414;-55
2023/05/08 07:30:32;;;;;;;4.82;2.90;;;;;;;22.42;57.74;101322.06;5076210;28;20059;-56
2023/05/08 07:32:59;;;;;;;5.05;3.42;;;;;;;22.34;58.21;101324.59;5076037;28;20040;-56
2023/05/08 07:35:28;;;;;;;4.60;3.45;;;;;;;22.25;57.82;101320.91;5076102;28;20048;-56
2023/05/08 07:37:55;;;;;;;4.57;3.88;;;;;;;22.16;57.94;101324.41;5074651;28;20048;-55
2023/05/08 07:40:22;;;;;;;4.68;3.30;;;;;;;22.14;58.48;101332.66;5075957;28;20049;-56
2023/05/08 07:42:50;;;;;;;6.32;2.90;;;;;;;22.16;58.56;101330.69;5075775;28;20409;-54
2023/05/08 07:45:17;;;;;;;4.00;3.08;;;;;;;22.21;58.60;101331.13;5067103;28;20033;-54
2023/05/08 07:47:52;;;;;;;4.13;3.30;;;;;;;22.28;58.82;101317.94;5044358;28;20041;-55
2023/05/08 07:50:20;;;;;;;4.97;3.30;;;;;;;22.32;58.83;101319.38;5056022;28;20064;-54
2023/05/08 07:52:47;;;;;;;4.20;2.70;;;;;;;22.37;58.76;101327.03;5055353;28;20045;-55
2023/05/08 07:55:17;;;;;;;4.80;2.97;;;;;;;22.41;58.84;101323.06;5055614;28;20510;-55
2023/05/08 07:57:44;;;;;;;5.47;2.90;;;;;;;22.43;58.59;101321.06;5055674;28;20376;-55
2023/05/08 08:00:14;;;;;;;4.65;2.90;;;;;;;22.46;58.78;101323.50;5055717;28;20463;-54
2023/05/08 08:02:43;;;;;;;7.03;3.65;;;;;;;22.47;58.43;101319.78;5055511;28;20036;-54
2023/05/08 08:05:11;;;;;;;6.47;4.07;;;;;;;22.48;58.07;101326.88;5055565;28;20037;-55
2023/05/08 08:07:39;;;;;;;5.13;3.83;;;;;;;22.48;57.29;101324.19;5055549;28;20045;-54
2023/05/08 08:10:07;;;;;;;4.75;3.22;;;;;;;22.50;57.38;101321.38;5055266;28;20381;-56
2023/05/08 08:12:34;;;;;;;3.75;2.90;;;;;;;22.51;57.26;101321.22;5055560;28;20402;-55
2023/05/08 08:15:02;;;;;;;4.60;2.90;;;;;;;22.53;57.70;101327.34;5054144;28;20049;-55
2023/05/08 08:17:30;;;;;;;3.65;2.92;;;;;;;22.54;57.84;101322.78;5055053;28;20426;-55
2023/05/08 08:19:57;;;;;;;3.78;2.45;;;;;;;22.57;58.11;101328.75;5055043;28;20044;-55
2023/05/08 08:22:25;;;;;;;3.85;2.67;;;;;;;22.58;58.01;101330.47;5055252;28;20045;-55
2023/05/08 08:24:55;;;;;;;4.57;2.47;;;;;;;22.60;58.05;101330.31;5055004;28;20067;-56
2023/05/08 08:27:23;;;;;;;2.90;2.42;;;;;;;22.60;57.94;101328.44;5055167;28;20053;-56
2023/05/08 08:29:50;;;;;;;3.90;2.20;;;;;;;22.61;58.19;101330.19;5055078;28;20045;-56
2023/05/08 08:32:30;;;;;;;3.63;2.72;;;;;;;22.63;58.06;101335.44;5055078;28;20049;-56
2023/05/08 08:34:58;;;;;;;3.17;2.53;;;;;;;22.63;58.05;101336.28;5054995;28;20044;-56
2023/05/08 08:37:25;;;;;;;2.95;2.03;;;;;;;22.65;57.97;101342.41;5055016;28;20379;-56
2023/05/08 08:39:53;;;;;;;3.92;2.65;;;;;;;22.66;58.12;101341.41;5054815;28;20049;-55
2023/05/08 08:42:20;;;;;;;4.47;2.30;;;;;;;22.66;58.15;101338.69;5054927;28;20049;-55
2023/05/08 08:44:48;;;;;;;4.35;2.58;;;;;;;22.66;58.08;101333.31;5054834;28;20048;-55
2023/05/08 08:47:17;;;;;;;4.05;2.67;;;;;;;22.67;58.07;101328.75;5054649;28;20276;-55
2023/05/08 08:49:50;;;;;;;3.42;2.25;;;;;;;22.67;58.41;101328.75;5054616;28;20049;-56
2023/05/08 08:52:27;;;;;;;3.65;2.72;;;;;;;22.66;58.37;101327.91;5054953;28;20064;-56
2023/05/08 08:54:56;;;;;;;3.40;2.50;;;;;;;22.67;58.37;101331.44;5054599;28;20041;-56
2023/05/08 08:57:26;;;;;;;3.95;2.70;;;;;;;22.68;59.00;101327.75;5054636;28;20041;-56
2023/05/08 08:59:54;;;;;;;4.28;2.90;;;;;;;22.67;58.90;101329.59;5054406;28;20056;-56
2023/05/08 09:02:23;;;;;;;4.18;2.60;;;;;;;22.68;59.41;101334.00;5054455;28;20049;-57
2023/05/08 09:04:50;;;;;;;3.50;2.65;;;;;;;22.67;59.08;101331.44;5054430;28;20076;-57
2023/05/08 09:07:18;;;;;;;3.80;2.30;;;;;;;22.67;59.24;101332.28;5054416;28;20056;-57
2023/05/08 09:09:45;;;;;;;4.07;2.20;;;;;;;22.67;59.92;101328.75;5053944;28;20049;-56
2023/05/08 09:12:13;;;;;;;4.90;2.72;;;;;;;22.66;59.61;101337.84;5053897;28;20044;-56
2023/05/08 09:14:41;;;;;;;3.65;2.42;;;;;;;22.64;60.18;101329.88;5053945;28;20059;-56
2023/05/08 09:17:09;;;;;;;4.35;2.33;;;;;;;22.65;60.78;101330.75;5054753;28;20052;-56
2023/05/08 09:19:36;;;;;;;2.78;2.28;;;;;;;22.64;60.34;101339.81;5054206;28;20056;-55
2023/05/08 09:22:08;;;;;;;3.67;2.60;;;;;;;22.63;61.15;101355.16;5053876;28;20513;-55
2023/05/08 09:24:58;;;;;;;3.80;2.40;;;;;;;22.63;61.47;101338.13;5053957;28;20052;-55
2023/05/08 09:27:27;;;;;;;3.10;2.25;;;;;;;22.63;62.14;101338.97;5053128;28;20052;-55
2023/05/08 09:30:09;;;;;;;3.78;2.60;;;;;;;22.61;61.03;101340.97;5053826;28;20072;-56
2023/05/08 09:32:41;;;;;;;3.42;2.67;;;;;;;22.63;61.05;101349.78;5054089;28;20045;-57
2023/05/08 09:35:10;;;;;;;3.17;2.78;;;;;;;22.62;59.51;101339.13;5053834;28;20055;-57
2023/05/08 09:37:40;;;;;;;2.97;2.17;;;;;;;22.62;60.99;101347.22;5053824;28;20049;-57
2023/05/08 09:40:18;;;;;;;3.05;2.30;;;;;;;22.62;60.43;101349.91;5054083;28;20048;-56
2023/05/08 09:42:47;;;;;;;3.92;2.50;;;;;;;22.62;61.24;101353.47;5053823;28;20052;-57
2023/05/08 09:45:31;;;;;;;3.22;2.45;;;;;;;22.61;61.04;101351.78;5053613;28;20368;-57
2023/05/08 09:47:58;;;;;;;3.83;2.67;;;;;;;22.61;59.63;101354.47;5053608;28;20055;-57
2023/05/08 09:50:26;;;;;;;5.05;2.85;;;;;;;22.62;59.88;101350.78;5053529;28;20041;-56
2023/05/08 09:52:54;;;;;;;5.13;2.42;;;;;;;22.62;59.74;101356.16;5053597;28;20052;-56
2023/05/08 09:55:21;;;;;;;3.95;2.83;;;;;;;22.63;59.50;101355.16;5053278;28;20045;-55
2023/05/08 09:57:58;;;;;;;4.18;2.85;;;;;;;22.63;60.05;101359.72;5053275;28;20053;-56
2023/05/08 10:00:28;;;;;;;5.00;2.67;;;;;;;22.64;60.03;101364.09;5051950;28;20048;-56
2023/05/08 10:03:02;;;;;;;3.53;2.50;;;;;;;22.62;59.67;101364.25;5053397;28;20053;-57
2023/05/08 10:05:33;;;;;;;3.53;2.58;;;;;;;22.62;57.97;101375.06;5053440;28;20041;-57
2023/05/08 10:08:25;;;;;;;4.45;2.60;;;;;;;22.64;60.98;101372.19;5053181;28;20486;-57
2023/05/08 10:10:52;;;;;;;4.53;2.75;;;;;;;22.61;59.35;101367.97;5053304;28;20052;-56
2023/05/08 10:13:20;;;;;;;4.57;3.30;;;;;;;22.60;59.03;101366.22;5053644;28;20049;-56
2023/05/08 10:15:53;;;;;;;5.07;3.67;;;;;;;22.60;58.21;101360.00;5052751;28;20048;-55
2023/05/08 10:18:27;;;;;;;4.13;2.63;;;;;;;22.61;57.94;101364.41;5053113;28;20494;-56
2023/05/08 10:20:57;;;;;;;4.07;2.80;;;;;;;22.59;57.99;101353.75;5053205;28;20049;-55
2023/05/08 10:23:25;;;;;;;3.97;2.95;;;;;;;22.60;58.29;101355.44;5053012;28;20056;-55
2023/05/08 10:26:00;;;;;;;4.28;2.85;;;;;;;22.60;58.12;101346.50;5052377;28;20044;-56
2023/05/08 10:28:41;;;;;;;3.80;2.95;;;;;;;22.59;57.87;101348.34;5053197;28;20053;-56
2023/05/08 10:31:13;;;;;;;4.05;3.17;;;;;;;22.60;57.76;101343.78;5054038;28;20057;-56
2023/05/08 10:33:44;;;;;;;3.60;2.90;;;;;;;22.60;58.28;101350.03;5053088;28;20045;-56
2023/05/08 10:36:13;;;;;;;3.95;3.22;;;;;;;22.61;57.40;101351.78;5052916;28;20060;-56
2023/05/08 10:38:42;;;;;;;4.55;2.90;;;;;;;22.60;59.81;101350.03;5054478;28;20052;-56
2023/05/08 10:41:10;;;;;;;4.47;3.20;;;;;;;22.61;59.31;101354.47;5056762;28;20048;-56
2023/05/08 10:43:41;;;;;;;4.35;3.10;;;;;;;22.61;58.55;101348.22;5056825;28;20041;-56
2023/05/08 10:46:36;;;;;;;4.63;3.50;;;;;;;22.59;57.71;101337.56;5056592;28;20045;-56
2023/05/08 10:49:33;;;;;;;5.28;3.10;;;;;;;22.61;59.26;101340.97;5056792;28;20067;-56
2023/05/08 10:52:08;;;;;;;3.72;2.85;;;;;;;22.61;57.72;101340.13;5056744;28;20067;-57
2023/05/08 10:54:48;;;;;;;4.68;2.45;;;;;;;22.62;58.36;101345.38;5056671;28;20049;-57
2023/05/08 10:57:15;;;;;;;4.53;3.10;;;;;;;22.62;57.77;101341.81;5056173;28;20054;-57
2023/05/08 10:59:46;;;;;;;4.97;2.83;;;;;;;22.62;57.76;101341.81;5056706;28;20168;-56
2023/05/08 11:02:14;;;;;;;4.32;3.00;;;;;;;22.61;57.82;101330.19;5056661;28;20044;-57
2023/05/08 11:04:42;;;;;;;4.00;2.78;;;;;;;22.62;58.17;101331.88;5056780;28;20056;-57
2023/05/08 11:07:10;;;;;;;3.78;2.70;;;;;;;22.62;58.99;101331.88;5055094;28;20041;-57
2023/05/08 11:09:40;;;;;;;4.65;2.90;;;;;;;22.60;56.67;101328.44;5056258;28;20050;-56
2023/05/08 11:12:16;;;;;;;4.82;2.90;;;;;;;22.58;56.70;101329.59;5056217;28;20048;-57
2023/05/08 11:14:54;;;;;;;4.40;3.40;;;;;;;22.59;58.69;101326.75;5055998;28;20049;-57
2023/05/08 11:17:23;;;;;;;3.60;3.00;;;;;;;22.59;58.42;101324.06;5056084;28;20070;-57
2023/05/08 11:19:58;;;;;;;4.50;3.25;;;;;;;22.59;57.97;101321.34;5056321;28;20402;-56
2023/05/08 11:22:28;;;;;;;4.25;2.80;;;;;;;22.59;57.60;101315.97;5055986;28;20045;-56
2023/05/08 11:25:08;;;;;;;5.35;3.88;;;;;;;22.52;56.72;101322.06;5056059;28;20048;-55
2023/05/08 11:27:36;;;;;;;3.63;2.92;;;;;;;22.50;57.64;101311.41;5056197;28;20049;-55
2023/05/08 11:30:33;;;;;;;3.60;2.78;;;;;;;22.51;59.03;101306.88;5056299;28;20047;-55
2023/05/08 11:33:03;;;;;;;4.07;3.08;;;;;;;22.52;58.25;101312.13;5056302;28;20049;-55
2023/05/08 11:35:51;;;;;;;4.63;3.20;;;;;;;22.53;57.87;101300.34;5055698;28;20056;-55
2023/05/08 11:38:26;;;;;;;4.45;3.70;;;;;;;22.54;58.58;101293.97;5055934;28;20116;-55
2023/05/08 11:40:59;;;;;;;4.70;3.47;;;;;;;22.53;57.99;101296.81;5055794;28;20403;-56
2023/05/08 11:43:32;;;;;;;4.82;3.05;;;;;;;22.53;58.98;101297.66;5055847;28;20048;-56